Time;durP1;ratioP1;P1;durP2;ratioP2;P2;SDS_P1;SDS_P2;PMS_P1;PMS_P2;Temp;Humidity;BMP_temperature;BMP_pressure;BME280_temperature;BME280_humidity;BME280_pressure;Samples;Min_cycle;Max_cycle;Signal;HPM_P1;HPM_P2
2021/07/01 00:00:57;;;;;;;;;;;15.00;99.90;;;;;;4997976;28;19936;-64
2021/07/01 00:03:46;;;;;;;;;;;15.00;99.90;;;;;;5008421;28;20313;-64
2021/07/01 00:07:00;;;;;;;;;;;14.90;99.90;;;;;;5025823;28;19936;-64
2021/07/01 00:09:48;;;;;;;;;;;14.90;99.90;;;;;;5031586;28;19932;-65
2021/07/01 00:12:38;;;;;;;;;;;14.80;99.90;;;;;;5024092;28;20056;-64
2021/07/01 00:15:28;;;;;;;;;;;14.80;99.90;;;;;;5017856;28;20266;-64
2021/07/01 00:18:16;;;;;;;;;;;14.70;99.90;;;;;;5024616;28;19950;-64
2021/07/01 00:21:05;;;;;;;;;;;14.70;99.90;;;;;;5024652;28;19933;-65
2021/07/01 00:23:54;;;;;;;;;;;14.60;99.90;;;;;;5026308;28;19947;-64
2021/07/01 00:26:42;;;;;;;;;;;14.60;99.90;;;;;;5027867;28;19980;-64
2021/07/01 00:29:32;;;;;;;;;;;14.60;99.90;;;;;;5032927;28;19929;-65
2021/07/01 00:32:21;;;;;;;;;;;14.60;99.90;;;;;;5025712;28;20051;-64
2021/07/01 00:35:10;;;;;;;;;;;14.60;99.90;;;;;;5030711;28;20282;-64
2021/07/01 00:37:59;;;;;;;;;;;14.60;99.90;;;;;;5032461;28;19939;-65
2021/07/01 00:40:47;;;;;;;;;;;14.50;99.90;;;;;;5032588;28;19960;-64
2021/07/01 00:43:35;;;;;;;;;;;14.60;99.90;;;;;;5036499;28;19933;-65
2021/07/01 00:46:26;;;;;;;;;;;14.60;99.90;;;;;;5025570;28;19956;-64
2021/07/01 00:49:15;;;;;;;;;;;14.60;99.90;;;;;;5031166;28;20063;-65
2021/07/01 00:52:09;;;;;;;;;;;14.60;99.90;;;;;;5030754;28;19925;-64
2021/07/01 00:55:23;;;;;;;;;;;14.60;99.90;;;;;;5032013;28;19945;-64
2021/07/01 00:58:13;;;;;;;;;;;14.60;99.90;;;;;;5020954;28;19925;-64
2021/07/01 01:01:02;;;;;;;;;;;14.60;99.90;;;;;;5024799;28;20023;-64
2021/07/01 01:04:16;;;;;;;;;;;14.50;99.90;;;;;;5043010;28;19925;-64
2021/07/01 01:07:30;;;;;;;;;;;14.60;99.90;;;;;;5013818;28;19948;-64
2021/07/01 01:10:19;;;;;;;;;;;14.60;99.90;;;;;;4999045;28;19948;-64
2021/07/01 01:13:23;;;;;;;;;;;14.60;99.90;;;;;;4988218;28;19989;-64
2021/07/01 01:16:31;;;;;;;;;;;14.60;99.90;;;;;;5007994;28;19926;-64
2021/07/01 01:19:20;;;;;;;;;;;14.60;99.90;;;;;;5015362;28;19948;-64
2021/07/01 01:22:10;;;;;;;;;;;14.50;99.90;;;;;;5009816;28;20272;-64
2021/07/01 01:25:03;;;;;;;;;;;14.50;99.90;;;;;;5011249;28;19929;-64
2021/07/01 01:27:52;;;;;;;;;;;14.50;99.90;;;;;;5013795;28;20282;-64
2021/07/01 01:30:41;;;;;;;;;;;14.50;99.90;;;;;;5004272;28;19951;-64
2021/07/01 01:33:30;;;;;;;;;;;14.50;99.90;;;;;;5019910;28;19925;-64
2021/07/01 01:36:21;;;;;;;;;;;14.50;99.90;;;;;;5029387;28;19926;-64
2021/07/01 01:39:13;;;;;;;;;;;14.50;99.90;;;;;;5021766;28;19926;-64
2021/07/01 01:42:07;;;;;;;;;;;14.50;99.90;;;;;;5022430;28;19931;-65
2021/07/01 01:44:57;;;;;;;;;;;14.40;99.90;;;;;;5005755;28;19929;-64
2021/07/01 01:51:03;;;;;;;;;;;14.40;99.90;;;;;;5017196;28;20376;-65
2021/07/01 01:54:17;;;;;;;;;;;14.40;99.90;;;;;;5011512;28;19929;-65
2021/07/01 01:57:11;;;;;;;;;;;14.50;99.90;;;;;;5007783;28;19932;-64
2021/07/01 02:00:33;;;;;;;;;;;14.40;99.90;;;;;;5007604;28;19925;-64
2021/07/01 02:03:21;;;;;;;;;;;14.40;99.90;;;;;;5011162;28;19965;-65
2021/07/01 02:06:34;;;;;;;;;;;14.40;99.90;;;;;;5032930;28;19925;-64
2021/07/01 02:09:23;;;;;;;;;;;14.40;99.90;;;;;;5019500;28;19925;-64
2021/07/01 02:12:16;;;;;;;;;;;14.40;99.90;;;;;;5032989;28;19925;-64
2021/07/01 02:15:06;;;;;;;;;;;14.40;99.90;;;;;;5010003;28;20047;-64
2021/07/01 02:18:07;;;;;;;;;;;14.30;99.90;;;;;;5032074;28;20051;-64
2021/07/01 02:20:58;;;;;;;;;;;14.30;99.90;;;;;;5016276;28;19936;-64
2021/07/01 02:23:49;;;;;;;;;;;14.30;99.90;;;;;;5029042;28;19925;-65
2021/07/01 02:26:38;;;;;;;;;;;14.30;99.90;;;;;;5017603;28;19925;-64
2021/07/01 02:29:29;;;;;;;;;;;14.30;99.90;;;;;;5031917;28;19925;-64
2021/07/01 02:32:26;;;;;;;;;;;14.30;99.90;;;;;;5011947;28;19948;-64
2021/07/01 02:35:14;;;;;;;;;;;14.20;99.90;;;;;;5018618;28;19925;-65
2021/07/01 02:38:21;;;;;;;;;;;14.20;99.90;;;;;;5031608;28;19926;-65
2021/07/01 02:41:19;;;;;;;;;;;14.10;99.90;;;;;;5018900;28;20301;-64
2021/07/01 02:44:14;;;;;;;;;;;14.00;99.90;;;;;;5018186;28;19956;-65
2021/07/01 02:47:22;;;;;;;;;;;14.00;99.90;;;;;;5026385;28;19932;-64
2021/07/01 02:50:15;;;;;;;;;;;14.00;99.90;;;;;;5014230;28;19925;-64
2021/07/01 02:53:04;;;;;;;;;;;13.90;99.90;;;;;;5031158;28;20466;-64
2021/07/01 02:55:53;;;;;;;;;;;13.90;99.90;;;;;;5026464;28;19925;-64
2021/07/01 02:58:43;;;;;;;;;;;13.90;99.90;;;;;;5019616;28;19956;-66
2021/07/01 03:01:51;;;;;;;;;;;13.90;99.90;;;;;;5020272;28;20399;-65
2021/07/01 03:04:56;;;;;;;;;;;13.90;99.90;;;;;;5031141;28;19940;-64
2021/07/01 03:07:48;;;;;;;;;;;13.90;99.90;;;;;;4998003;28;20015;-65
2021/07/01 03:10:38;;;;;;;;;;;13.90;99.90;;;;;;5006272;28;19952;-65
2021/07/01 03:13:27;;;;;;;;;;;13.80;99.90;;;;;;4998544;28;20334;-65
2021/07/01 03:16:19;;;;;;;;;;;13.80;99.90;;;;;;5004949;28;19936;-64
2021/07/01 03:19:08;;;;;;;;;;;13.70;99.90;;;;;;5008286;28;19930;-64
2021/07/01 03:22:17;;;;;;;;;;;13.70;99.90;;;;;;5009879;28;19925;-66
2021/07/01 03:25:07;;;;;;;;;;;13.70;99.90;;;;;;5012900;28;19933;-64
2021/07/01 03:27:55;;;;;;;;;;;13.70;99.90;;;;;;4998215;28;20277;-64
2021/07/01 03:30:44;;;;;;;;;;;13.60;99.90;;;;;;5007344;28;19926;-65
2021/07/01 03:33:33;;;;;;;;;;;13.60;99.90;;;;;;4992466;28;19926;-65
2021/07/01 03:36:22;;;;;;;;;;;13.60;99.90;;;;;;4996476;28;19937;-64
2021/07/01 03:39:27;;;;;;;;;;;13.60;99.90;;;;;;5013225;28;19926;-64
2021/07/01 03:42:22;;;;;;;;;;;13.60;99.90;;;;;;5010664;28;19976;-66
2021/07/01 03:45:12;;;;;;;;;;;13.60;99.90;;;;;;4987043;28;19925;-64
2021/07/01 03:48:01;;;;;;;;;;;13.60;99.90;;;;;;5008701;28;20381;-64
2021/07/01 03:54:23;;;;;;;;;;;13.60;99.90;;;;;;4997435;28;19929;-65
2021/07/01 03:57:13;;;;;;;;;;;13.60;99.90;;;;;;5011782;28;19976;-64
2021/07/01 04:00:11;;;;;;;;;;;13.60;99.90;;;;;;4991665;28;19964;-64
2021/07/01 04:03:17;;;;;;;;;;;13.70;99.90;;;;;;4994644;28;19933;-64
2021/07/01 04:06:34;;;;;;;;;;;13.70;99.90;;;;;;5013806;28;19932;-64
2021/07/01 04:09:23;;;;;;;;;;;13.70;99.90;;;;;;4996387;28;19933;-64
2021/07/01 04:12:33;;;;;;;;;;;13.70;99.90;;;;;;5011962;28;20020;-65
2021/07/01 04:15:41;;;;;;;;;;;13.80;99.90;;;;;;5006404;28;19925;-65
2021/07/01 04:19:07;;;;;;;;;;;13.90;99.90;;;;;;5015331;28;19983;-65
2021/07/01 04:22:14;;;;;;;;;;;14.00;99.90;;;;;;5014246;28;19926;-64
2021/07/01 04:25:38;;;;;;;;;;;14.10;99.90;;;;;;4954945;28;19934;-64
2021/07/01 04:28:29;;;;;;;;;;;14.10;99.90;;;;;;5016418;28;19930;-65
2021/07/01 04:31:21;;;;;;;;;;;14.20;99.90;;;;;;4995333;28;19926;-64
2021/07/01 04:34:19;;;;;;;;;;;14.20;99.90;;;;;;5015512;28;19932;-64
2021/07/01 04:37:08;;;;;;;;;;;14.20;99.90;;;;;;5012512;28;20344;-64
2021/07/01 04:40:10;;;;;;;;;;;14.10;99.90;;;;;;4998264;28;19972;-64
2021/07/01 04:43:03;;;;;;;;;;;14.10;99.90;;;;;;5013761;28;19933;-66
2021/07/01 04:45:54;;;;;;;;;;;14.00;99.90;;;;;;4995819;28;20266;-65
2021/07/01 04:48:43;;;;;;;;;;;14.00;99.90;;;;;;5014232;28;19925;-65
2021/07/01 04:51:32;;;;;;;;;;;14.00;99.90;;;;;;5016123;28;20254;-65
2021/07/01 04:54:44;;;;;;;;;;;13.90;99.90;;;;;;5015495;28;19926;-64
2021/07/01 04:57:52;;;;;;;;;;;14.00;99.90;;;;;;5014637;28;19930;-64
2021/07/01 05:00:41;;;;;;;;;;;13.90;99.90;;;;;;5001406;28;19961;-64
2021/07/01 05:03:50;;;;;;;;;;;14.00;99.90;;;;;;5013184;28;19929;-64
2021/07/01 05:06:42;;;;;;;;;;;14.00;99.90;;;;;;5027788;28;19933;-65
2021/07/01 05:09:31;;;;;;;;;;;13.90;99.90;;;;;;5031632;28;19925;-64
2021/07/01 05:12:29;;;;;;;;;;;13.80;99.90;;;;;;5030288;28;19929;-65
2021/07/01 05:15:19;;;;;;;;;;;13.80;99.90;;;;;;5026221;28;20020;-64
2021/07/01 05:18:08;;;;;;;;;;;13.80;99.90;;;;;;5032852;28;19983;-64
2021/07/01 05:21:02;;;;;;;;;;;13.80;99.90;;;;;;5033939;28;19980;-64
2021/07/01 05:24:09;;;;;;;;;;;13.80;99.90;;;;;;5033973;28;20002;-65
2021/07/01 05:27:17;;;;;;;;;;;13.80;99.90;;;;;;5032079;28;19929;-64
2021/07/01 05:30:24;;;;;;;;;;;13.70;99.90;;;;;;5029240;28;19933;-64
2021/07/01 05:33:31;;;;;;;;;;;13.80;99.90;;;;;;5032163;28;19929;-64
2021/07/01 05:36:21;;;;;;;;;;;13.80;99.90;;;;;;5016337;28;19925;-65
2021/07/01 05:39:15;;;;;;;;;;;13.90;99.90;;;;;;5019314;28;19932;-65
2021/07/01 05:42:07;;;;;;;;;;;13.90;99.90;;;;;;5020024;28;20058;-65
2021/07/01 05:44:57;;;;;;;;;;;14.00;99.90;;;;;;5027396;28;19925;-65
2021/07/01 05:47:46;;;;;;;;;;;14.20;99.90;;;;;;5025520;28;19925;-64
2021/07/01 05:50:41;;;;;;;;;;;14.30;99.90;;;;;;5033167;28;19948;-65
2021/07/01 05:53:34;;;;;;;;;;;14.40;99.90;;;;;;5027917;28;19991;-65
2021/07/01 05:56:23;;;;;;;;;;;14.40;99.90;;;;;;5032688;28;19925;-64
2021/07/01 05:59:12;;;;;;;;;;;14.60;99.90;;;;;;5017293;28;19976;-65
2021/07/01 06:02:25;;;;;;;;;;;14.60;99.90;;;;;;5026406;28;19932;-64
2021/07/01 06:05:15;;;;;;;;;;;14.60;99.90;;;;;;5033400;28;19931;-67
2021/07/01 06:08:23;;;;;;;;;;;14.70;99.90;;;;;;5033982;28;20374;-65
2021/07/01 06:11:15;;;;;;;;;;;14.70;99.90;;;;;;5036582;28;19929;-64
2021/07/01 06:14:29;;;;;;;;;;;14.70;99.90;;;;;;5032446;28;19929;-64
2021/07/01 06:17:18;;;;;;;;;;;14.60;99.90;;;;;;5028720;28;19929;-64
2021/07/01 06:20:08;;;;;;;;;;;14.60;99.90;;;;;;5034167;28;19972;-65
2021/07/01 06:22:57;;;;;;;;;;;14.50;99.90;;;;;;5044359;28;19925;-65
2021/07/01 06:25:47;;;;;;;;;;;14.60;99.90;;;;;;5043450;28;20364;-65
2021/07/01 06:28:40;;;;;;;;;;;14.60;99.90;;;;;;5035819;28;19925;-65
2021/07/01 06:31:31;;;;;;;;;;;14.60;99.90;;;;;;5011472;28;20154;-65
2021/07/01 06:34:44;;;;;;;;;;;14.60;99.90;;;;;;5016517;28;19925;-65
2021/07/01 06:37:58;;;;;;;;;;;14.60;99.90;;;;;;5031331;28;19929;-65
2021/07/01 06:41:07;;;;;;;;;;;14.70;99.90;;;;;;5031042;28;19951;-64
2021/07/01 06:44:21;;;;;;;;;;;14.80;99.90;;;;;;5032814;28;19928;-65
2021/07/01 06:47:33;;;;;;;;;;;14.80;99.90;;;;;;5015098;28;20027;-65
2021/07/01 06:50:40;;;;;;;;;;;14.90;99.90;;;;;;5037471;28;19925;-64
2021/07/01 06:53:48;;;;;;;;;;;14.90;99.90;;;;;;5038489;28;19925;-64
2021/07/01 06:57:00;;;;;;;;;;;15.00;99.90;;;;;;5037231;28;19929;-66
2021/07/01 06:59:50;;;;;;;;;;;15.00;99.90;;;;;;5035962;28;19932;-65
2021/07/01 07:02:40;;;;;;;;;;;14.90;99.90;;;;;;5031019;28;20397;-64
2021/07/01 07:05:28;;;;;;;;;;;14.80;99.90;;;;;;5032829;28;20404;-64
2021/07/01 07:08:17;;;;;;;;;;;14.90;99.90;;;;;;5019291;28;20059;-65
2021/07/01 07:11:06;;;;;;;;;;;14.90;99.90;;;;;;5038067;28;19933;-65
2021/07/01 07:13:54;;;;;;;;;;;14.90;99.90;;;;;;5025691;28;20020;-64
2021/07/01 07:16:46;;;;;;;;;;;14.80;99.90;;;;;;5027872;28;20405;-64
2021/07/01 07:19:35;;;;;;;;;;;14.80;99.90;;;;;;5027618;28;19936;-65
2021/07/01 07:22:25;;;;;;;;;;;14.90;99.90;;;;;;5032168;28;20380;-64
2021/07/01 07:25:13;;;;;;;;;;;14.90;99.90;;;;;;5030641;28;19925;-65
2021/07/01 07:28:04;;;;;;;;;;;14.90;99.90;;;;;;5030544;28;19964;-64
2021/07/01 07:30:53;;;;;;;;;;;14.90;99.90;;;;;;5025267;28;19930;-65
2021/07/01 07:33:44;;;;;;;;;;;14.80;99.90;;;;;;5012757;28;19925;-65
2021/07/01 07:36:34;;;;;;;;;;;15.00;99.90;;;;;;5029295;28;20004;-64
2021/07/01 07:39:24;;;;;;;;;;;15.20;99.90;;;;;;5033017;28;19978;-64
2021/07/01 07:42:13;;;;;;;;;;;15.50;99.90;;;;;;5032134;28;19936;-64
2021/07/01 07:45:48;;;;;;;;;;;15.70;99.90;;;;;;5155439;27;19920;-66
2021/07/01 07:48:37;;;;;;;;;;;15.70;99.90;;;;;;5109044;28;19953;-63
2021/07/01 07:51:29;;;;;;;;;;;15.80;99.90;;;;;;5084704;28;19951;-63
2021/07/01 07:54:22;;;;;;;;;;;15.60;99.90;;;;;;5101179;28;19935;-63
2021/07/01 07:57:11;;;;;;;;;;;15.80;99.90;;;;;;5092366;28;20026;-63
2021/07/01 08:00:00;;;;;;;;;;;15.80;99.90;;;;;;5106360;28;20015;-63
2021/07/01 08:02:51;;;;;;;;;;;15.90;99.90;;;;;;5102950;28;19929;-64
2021/07/01 08:05:40;;;;;;;;;;;15.90;99.90;;;;;;5104611;28;19924;-63
2021/07/01 08:08:30;;;;;;;;;;;16.10;99.90;;;;;;5099792;28;19939;-63
2021/07/01 08:11:44;;;;;;;;;;;16.00;99.90;;;;;;5105920;28;20259;-63
2021/07/01 08:14:35;;;;;;;;;;;16.00;99.90;;;;;;5103606;28;19924;-63
2021/07/01 08:17:24;;;;;;;;;;;15.70;99.90;;;;;;5097064;28;19924;-64
2021/07/01 08:20:15;;;;;;;;;;;15.60;99.90;;;;;;5104799;28;20011;-64
2021/07/01 08:23:04;;;;;;;;;;;15.40;99.90;;;;;;5111360;28;19935;-64
2021/07/01 08:25:53;;;;;;;;;;;15.50;99.90;;;;;;5116993;28;19924;-64
2021/07/01 08:28:41;;;;;;;;;;;15.60;99.90;;;;;;5100108;28;19927;-64
2021/07/01 08:31:32;;;;;;;;;;;15.60;99.90;;;;;;5084078;28;19931;-63
2021/07/01 08:34:22;;;;;;;;;;;15.70;99.90;;;;;;5100636;28;19947;-61
2021/07/01 08:37:12;;;;;;;;;;;16.00;99.90;;;;;;5096249;28;19927;-63
2021/07/01 08:40:02;;;;;;;;;;;16.60;99.90;;;;;;5102560;28;19978;-63
2021/07/01 08:42:59;;;;;;;;;;;16.80;99.90;;;;;;5105494;28;19938;-63
2021/07/01 08:45:56;;;;;;;;;;;16.60;99.90;;;;;;5097532;28;19925;-64
2021/07/01 08:48:57;;;;;;;;;;;16.50;99.90;;;;;;5107910;28;19928;-64
2021/07/01 08:51:46;;;;;;;;;;;16.20;99.90;;;;;;5102680;28;19938;-63
2021/07/01 08:54:40;;;;;;;;;;;16.30;99.90;;;;;;5083475;28;20364;-63
2021/07/01 08:57:30;;;;;;;;;;;16.40;99.90;;;;;;5084212;28;19976;-63
2021/07/01 09:00:19;;;;;;;;;;;16.20;99.90;;;;;;5082243;28;20299;-63
2021/07/01 09:03:09;;;;;;;;;;;16.20;99.90;;;;;;5086377;28;19924;-63
2021/07/01 09:06:01;;;;;;;;;;;16.30;99.90;;;;;;5086635;28;19932;-63
2021/07/01 09:08:52;;;;;;;;;;;16.40;99.90;;;;;;5085472;28;20433;-63
2021/07/01 09:11:42;;;;;;;;;;;16.40;99.90;;;;;;5088066;28;19928;-64
2021/07/01 09:14:32;;;;;;;;;;;16.20;99.90;;;;;;5093316;28;19928;-65
2021/07/01 09:17:21;;;;;;;;;;;16.00;99.90;;;;;;5076255;28;20002;-63
2021/07/01 09:20:11;;;;;;;;;;;15.80;99.90;;;;;;5088717;28;20015;-63
2021/07/01 09:23:00;;;;;;;;;;;15.90;99.90;;;;;;5084882;28;19935;-63
2021/07/01 09:25:49;;;;;;;;;;;16.00;99.90;;;;;;5098960;28;20008;-63
2021/07/01 09:28:39;;;;;;;;;;;16.40;99.90;;;;;;5093382;28;20005;-63
2021/07/01 09:31:28;;;;;;;;;;;16.90;99.90;;;;;;5084461;28;19984;-63
2021/07/01 09:34:17;;;;;;;;;;;17.80;99.90;;;;;;5085956;28;19929;-64
2021/07/01 09:37:07;;;;;;;;;;;18.50;99.90;;;;;;5088489;28;19928;-63
2021/07/01 09:39:56;;;;;;;;;;;18.40;99.90;;;;;;5089196;28;20387;-64
2021/07/01 09:42:47;;;;;;;;;;;19.00;99.90;;;;;;5087946;28;19929;-63
2021/07/01 09:46:03;;;;;;;;;;;19.30;99.90;;;;;;5077431;28;20407;-63
2021/07/01 09:48:53;;;;;;;;;;;19.90;99.90;;;;;;5086421;28;19924;-63
2021/07/01 09:51:42;;;;;;;;;;;19.00;99.90;;;;;;5081669;28;20006;-64
2021/07/01 09:54:55;;;;;;;;;;;18.30;99.90;;;;;;5086114;28;19924;-64
2021/07/01 09:57:45;;;;;;;;;;;18.00;99.90;;;;;;5076087;28;20573;-64
2021/07/01 10:00:36;;;;;;;;;;;17.60;99.90;;;;;;5082972;28;19939;-66
2021/07/01 10:03:27;;;;;;;;;;;17.60;99.90;;;;;;5084432;28;19939;-64
2021/07/01 10:06:17;;;;;;;;;;;17.80;99.90;;;;;;5087435;28;19924;-64
2021/07/01 10:09:07;;;;;;;;;;;17.80;99.90;;;;;;5090870;28;20012;-65
2021/07/01 10:11:56;;;;;;;;;;;17.60;99.90;;;;;;5078187;28;20241;-64
2021/07/01 10:14:46;;;;;;;;;;;17.30;99.90;;;;;;5091061;28;20011;-64
2021/07/01 10:17:35;;;;;;;;;;;17.00;99.90;;;;;;5089661;28;19924;-65
2021/07/01 10:20:31;;;;;;;;;;;16.60;99.90;;;;;;5079785;28;19928;-64
2021/07/01 10:23:20;;;;;;;;;;;16.50;99.90;;;;;;5092364;28;19924;-64
2021/07/01 10:26:12;;;;;;;;;;;16.60;99.90;;;;;;5087918;28;20443;-65
2021/07/01 10:29:01;;;;;;;;;;;16.70;99.90;;;;;;5088687;28;19939;-64
2021/07/01 10:31:54;;;;;;;;;;;16.90;99.90;;;;;;5078428;28;20016;-64
2021/07/01 10:34:56;;;;;;;;;;;17.10;99.90;;;;;;5083100;28;19928;-64
2021/07/01 10:37:56;;;;;;;;;;;17.40;99.90;;;;;;5089514;28;19928;-65
2021/07/01 10:40:46;;;;;;;;;;;17.60;99.90;;;;;;5079942;28;19998;-64
2021/07/01 10:43:38;;;;;;;;;;;17.90;99.90;;;;;;5077174;28;19924;-65
2021/07/01 10:46:37;;;;;;;;;;;18.30;99.90;;;;;;5076714;28;20383;-65
2021/07/01 10:49:31;;;;;;;;;;;18.60;99.90;;;;;;5089154;28;19931;-64
2021/07/01 10:52:20;;;;;;;;;;;18.70;99.90;;;;;;5090925;28;20019;-64
2021/07/01 10:55:11;;;;;;;;;;;18.30;99.90;;;;;;5086589;28;20249;-64
2021/07/01 10:58:20;;;;;;;;;;;17.80;99.90;;;;;;5081489;28;20011;-64
2021/07/01 11:01:30;;;;;;;;;;;17.40;99.90;;;;;;5072397;28;20050;-65
2021/07/01 11:04:19;;;;;;;;;;;17.30;99.90;;;;;;5082498;28;19924;-64
2021/07/01 11:07:08;;;;;;;;;;;17.10;99.90;;;;;;5084181;28;20433;-64
2021/07/01 11:09:57;;;;;;;;;;;16.90;99.90;;;;;;5077791;28;19930;-64
2021/07/01 11:12:48;;;;;;;;;;;16.80;99.90;;;;;;5079216;28;19928;-63
2021/07/01 11:16:03;;;;;;;;;;;16.60;99.90;;;;;;5075543;28;19928;-66
2021/07/01 11:18:53;;;;;;;;;;;16.60;99.90;;;;;;5082211;28;19924;-64
2021/07/01 11:22:07;;;;;;;;;;;16.60;99.90;;;;;;5079792;28;19982;-64
2021/07/01 11:24:56;;;;;;;;;;;16.50;99.90;;;;;;5076212;28;19930;-64
2021/07/01 11:27:44;;;;;;;;;;;16.60;99.90;;;;;;5065659;28;19932;-65
2021/07/01 11:30:45;;;;;;;;;;;16.80;99.90;;;;;;5082252;28;19924;-65
2021/07/01 11:33:34;;;;;;;;;;;17.00;99.90;;;;;;5093349;28;20006;-65
2021/07/01 11:36:23;;;;;;;;;;;17.20;99.90;;;;;;5090954;28;20231;-64
2021/07/01 11:39:13;;;;;;;;;;;17.30;99.90;;;;;;5087048;28;19932;-65
2021/07/01 11:42:03;;;;;;;;;;;17.60;99.90;;;;;;5070176;28;19951;-65
2021/07/01 11:44:52;;;;;;;;;;;17.70;99.90;;;;;;5087289;28;20009;-65
2021/07/01 11:47:43;;;;;;;;;;;17.70;99.90;;;;;;5097743;28;19924;-64
2021/07/01 11:50:32;;;;;;;;;;;17.90;99.90;;;;;;5100690;28;19931;-65
2021/07/01 11:53:21;;;;;;;;;;;17.80;99.90;;;;;;5083210;28;19973;-67
2021/07/01 11:56:10;;;;;;;;;;;17.50;99.90;;;;;;5093384;28;19924;-64
2021/07/01 11:58:58;;;;;;;;;;;17.30;99.90;;;;;;5092606;28;19993;-64
2021/07/01 12:01:47;;;;;;;;;;;17.20;99.90;;;;;;5081687;28;19932;-64
2021/07/01 12:04:38;;;;;;;;;;;17.10;99.90;;;;;;5082890;28;19931;-64
2021/07/01 12:07:28;;;;;;;;;;;16.90;99.90;;;;;;5072083;28;19931;-64
2021/07/01 12:10:24;;;;;;;;;;;16.70;99.90;;;;;;5088026;28;19982;-64
2021/07/01 12:13:36;;;;;;;;;;;16.70;99.90;;;;;;5079508;28;20398;-64
2021/07/01 12:16:39;;;;;;;;;;;16.50;99.90;;;;;;5066074;28;19925;-65
2021/07/01 12:19:43;;;;;;;;;;;16.30;99.90;;;;;;5089951;28;19939;-64
2021/07/01 12:22:46;;;;;;;;;;;16.20;99.90;;;;;;5080002;28;19931;-64
2021/07/01 12:25:42;;;;;;;;;;;16.20;99.90;;;;;;5086651;28;19962;-64
2021/07/01 12:28:30;;;;;;;;;;;16.20;99.90;;;;;;5085929;28;19931;-64
2021/07/01 12:31:22;;;;;;;;;;;16.10;99.90;;;;;;5083248;28;19928;-64
2021/07/01 12:34:12;;;;;;;;;;;16.00;99.90;;;;;;5081173;28;19925;-64
2021/07/01 12:37:04;;;;;;;;;;;16.00;99.90;;;;;;5084621;28;20350;-64
2021/07/01 12:39:54;;;;;;;;;;;16.00;99.90;;;;;;5091481;28;19938;-64
2021/07/01 12:42:43;;;;;;;;;;;15.90;99.90;;;;;;5085625;28;19924;-64
2021/07/01 12:45:32;;;;;;;;;;;15.80;99.90;;;;;;5039544;28;20305;-64
2021/07/01 12:48:38;;;;;;;;;;;15.80;99.90;;;;;;5052826;28;19925;-64
2021/07/01 12:51:42;;;;;;;;;;;16.00;99.90;;;;;;5050447;28;20027;-65
2021/07/01 12:54:55;;;;;;;;;;;16.00;99.90;;;;;;5052892;28;19936;-64
2021/07/01 12:57:45;;;;;;;;;;;16.00;99.90;;;;;;5055167;28;19925;-65
2021/07/01 13:00:35;;;;;;;;;;;16.00;99.90;;;;;;5044187;28;20016;-64
2021/07/01 13:03:27;;;;;;;;;;;16.00;99.90;;;;;;5050729;28;19931;-64
2021/07/01 13:09:29;;;;;;;;;;;16.10;99.90;;;;;;5049718;28;19935;-64
2021/07/01 13:12:29;;;;;;;;;;;16.30;99.90;;;;;;5055006;28;20386;-63
2021/07/01 13:15:21;;;;;;;;;;;16.40;99.90;;;;;;5045408;28;20056;-64
2021/07/01 13:18:10;;;;;;;;;;;16.60;99.90;;;;;;5051099;28;19959;-64
2021/07/01 13:21:08;;;;;;;;;;;16.90;99.90;;;;;;5054041;28;19928;-63
2021/07/01 13:24:03;;;;;;;;;;;17.20;99.90;;;;;;5061291;28;19925;-64
2021/07/01 13:26:53;;;;;;;;;;;17.40;99.90;;;;;;5060163;28;19929;-64
2021/07/01 13:29:42;;;;;;;;;;;17.20;99.90;;;;;;5054132;28;19969;-64
2021/07/01 13:36:10;;;;;;;;;;;17.00;99.90;;;;;;5084315;28;19992;-64
2021/07/01 13:38:59;;;;;;;;;;;16.80;99.90;;;;;;5097024;28;19928;-64
2021/07/01 13:41:47;;;;;;;;;;;16.80;99.90;;;;;;5087696;28;19924;-64
2021/07/01 13:44:36;;;;;;;;;;;16.80;99.90;;;;;;5086824;28;19924;-64
2021/07/01 13:47:24;;;;;;;;;;;16.80;99.90;;;;;;5075517;28;20496;-64
2021/07/01 13:50:24;;;;;;;;;;;16.90;99.90;;;;;;5085694;28;19934;-64
2021/07/01 13:53:15;;;;;;;;;;;17.10;99.90;;;;;;5086835;28;19974;-64
2021/07/01 13:56:04;;;;;;;;;;;17.00;99.90;;;;;;5074086;28;19924;-64
2021/07/01 13:58:53;;;;;;;;;;;17.20;99.90;;;;;;5082084;28;19924;-64
2021/07/01 14:01:42;;;;;;;;;;;17.50;99.90;;;;;;5062517;28;20018;-65
2021/07/01 14:04:42;;;;;;;;;;;17.90;99.90;;;;;;5079892;28;19928;-63
2021/07/01 14:07:32;;;;;;;;;;;18.30;99.90;;;;;;5072145;28;20015;-64
2021/07/01 14:10:21;;;;;;;;;;;18.40;99.90;;;;;;5078859;28;20023;-64
2021/07/01 14:13:10;;;;;;;;;;;18.30;99.90;;;;;;5077630;28;19925;-64
2021/07/01 14:16:06;;;;;;;;;;;18.20;99.90;;;;;;5054415;28;19929;-64
2021/07/01 14:22:09;;;;;;;;;;;17.50;99.90;;;;;;5078226;28;19960;-64
2021/07/01 14:25:13;;;;;;;;;;;17.30;99.90;;;;;;5066586;28;20015;-64
2021/07/01 14:28:04;;;;;;;;;;;17.10;99.90;;;;;;5089746;28;19959;-64
2021/07/01 14:30:53;;;;;;;;;;;17.00;99.90;;;;;;5069957;28;20388;-64
2021/07/01 14:33:43;;;;;;;;;;;16.80;99.90;;;;;;5067098;28;19929;-64
2021/07/01 14:36:34;;;;;;;;;;;16.70;99.90;;;;;;5078325;28;19924;-64
2021/07/01 14:39:23;;;;;;;;;;;16.70;99.90;;;;;;5081146;28;19924;-64
2021/07/01 14:42:16;;;;;;;;;;;16.60;99.90;;;;;;5069016;28;19967;-64
2021/07/01 14:45:06;;;;;;;;;;;16.40;99.90;;;;;;5078773;28;19973;-64
2021/07/01 14:47:54;;;;;;;;;;;16.30;99.90;;;;;;5069122;28;20357;-64
2021/07/01 14:50:43;;;;;;;;;;;16.40;99.90;;;;;;5081435;28;20312;-64
2021/07/01 14:53:34;;;;;;;;;;;16.50;99.90;;;;;;5071199;28;19924;-64
2021/07/01 14:56:42;;;;;;;;;;;16.40;99.90;;;;;;5070728;28;19928;-63
2021/07/01 14:59:43;;;;;;;;;;;16.30;99.90;;;;;;5078704;28;19928;-63
2021/07/01 15:02:33;;;;;;;;;;;16.20;99.90;;;;;;5065908;28;19973;-65
2021/07/01 15:05:27;;;;;;;;;;;16.20;99.90;;;;;;5063107;28;19947;-65
2021/07/01 15:08:15;;;;;;;;;;;16.00;99.90;;;;;;5077302;28;19929;-64
2021/07/01 15:14:45;;;;;;;;;;;15.60;99.90;;;;;;5055132;28;19931;-64
2021/07/01 15:17:35;;;;;;;;;;;15.40;99.90;;;;;;5060114;28;19976;-63
2021/07/01 15:20:26;;;;;;;;;;;15.20;99.90;;;;;;5074192;28;19932;-64
2021/07/01 15:23:16;;;;;;;;;;;15.20;99.90;;;;;;5076638;28;19924;-65
2021/07/01 15:26:05;;;;;;;;;;;15.20;99.90;;;;;;5078158;28;20044;-63
2021/07/01 15:28:55;;;;;;;;;;;15.10;99.90;;;;;;5076330;28;19924;-64
2021/07/01 15:31:44;;;;;;;;;;;15.10;99.90;;;;;;5063504;28;19936;-64
2021/07/01 15:34:34;;;;;;;;;;;15.20;99.90;;;;;;5074800;28;20012;-64
2021/07/01 15:37:23;;;;;;;;;;;15.20;99.90;;;;;;5083202;28;19991;-64
2021/07/01 15:40:16;;;;;;;;;;;15.20;99.90;;;;;;5088018;28;19989;-64
2021/07/01 15:43:13;;;;;;;;;;;15.30;99.90;;;;;;5094983;28;19943;-64
2021/07/01 15:46:02;;;;;;;;;;;15.30;99.90;;;;;;5062509;28;19924;-65
2021/07/01 15:48:51;;;;;;;;;;;15.30;99.90;;;;;;5049684;28;19931;-64
2021/07/01 15:51:41;;;;;;;;;;;15.20;99.90;;;;;;5056678;28;19967;-64
2021/07/01 15:57:44;;;;;;;;;;;15.40;99.90;;;;;;5063394;28;20445;-64
2021/07/01 16:00:33;;;;;;;;;;;15.30;99.90;;;;;;5058732;28;20430;-64
2021/07/01 16:03:22;;;;;;;;;;;15.30;99.90;;;;;;5062757;28;19931;-64
2021/07/01 16:06:11;;;;;;;;;;;15.30;99.90;;;;;;5059971;28;19925;-64
2021/07/01 16:09:01;;;;;;;;;;;15.30;99.90;;;;;;5067803;28;19932;-64
2021/07/01 16:11:51;;;;;;;;;;;15.30;99.90;;;;;;5055272;28;19938;-64
2021/07/01 16:14:40;;;;;;;;;;;15.30;99.90;;;;;;5066003;28;19936;-63
2021/07/01 16:17:28;;;;;;;;;;;15.30;99.90;;;;;;5058315;28;19924;-63
2021/07/01 16:20:17;;;;;;;;;;;15.40;99.90;;;;;;5064123;28;19951;-64
2021/07/01 16:23:07;;;;;;;;;;;15.30;99.90;;;;;;5066361;28;20304;-66
2021/07/01 16:25:58;;;;;;;;;;;15.30;99.90;;;;;;5054075;28;20017;-63
2021/07/01 16:28:49;;;;;;;;;;;15.20;99.90;;;;;;5068754;28;19975;-63
2021/07/01 16:31:38;;;;;;;;;;;15.20;99.90;;;;;;5046767;28;19925;-64
2021/07/01 16:34:27;;;;;;;;;;;15.20;99.90;;;;;;5066628;28;19992;-63
2021/07/01 16:37:16;;;;;;;;;;;15.20;99.90;;;;;;5073973;28;20384;-64
2021/07/01 16:40:04;;;;;;;;;;;15.20;99.90;;;;;;5061051;28;19929;-64
2021/07/01 16:42:57;;;;;;;;;;;15.20;99.90;;;;;;5067357;28;19936;-63
2021/07/01 16:45:48;;;;;;;;;;;15.20;99.90;;;;;;5047087;28;20402;-63
2021/07/01 16:48:37;;;;;;;;;;;15.20;99.90;;;;;;5051207;28;19964;-63
2021/07/01 16:51:30;;;;;;;;;;;15.20;99.90;;;;;;5058451;28;19935;-64
2021/07/01 16:54:26;;;;;;;;;;;15.20;99.90;;;;;;5055648;28;20325;-63
2021/07/01 16:57:41;;;;;;;;;;;15.20;99.90;;;;;;5051676;28;19925;-64
2021/07/01 17:00:31;;;;;;;;;;;15.10;99.90;;;;;;5042797;28;19925;-64
2021/07/01 17:03:22;;;;;;;;;;;15.10;99.90;;;;;;5047060;28;19932;-63
2021/07/01 17:06:11;;;;;;;;;;;15.20;99.90;;;;;;5049755;28;20551;-63
2021/07/01 17:09:01;;;;;;;;;;;15.10;99.90;;;;;;5048425;28;19924;-63
2021/07/01 17:11:50;;;;;;;;;;;15.10;99.90;;;;;;5042026;28;19972;-63
2021/07/01 17:14:40;;;;;;;;;;;15.10;99.90;;;;;;5041835;28;19975;-63